Terminal Aerodrome Forecast
Issued by NWS

Home | Current Version | Previous Version | Text Only | Print | Product List | Glossary On
Versions: 1 2 3 4 5 6 7 8 9 10 11 12 13 14 15 16
000
FTUS41 KBTV 301731
TAFSLK
TAF
KSLK 301731Z 3018/0118 17006KT P6SM -RA SCT035 OVC050
      TEMPO 3018/3021 5SM RA BR SCT025 OVC035
     FM302100 17007KT P6SM VCSH BKN025 OVC040
     FM010300 VRB03KT P6SM VCSH BKN015 OVC025
     FM010700 VRB03KT 5SM BR VCSH BKN008 OVC015
     FM011300 20009G16KT P6SM SCT020 OVC035=

USA.gov is the U.S. government's official web portal to all federal, state and local government web resources and services.